Time;durP1;ratioP1;P1;durP2;ratioP2;P2;SDS_P1;SDS_P2;PMS_P1;PMS_P2;Temp;Humidity;BMP_temperature;BMP_pressure;BME280_temperature;BME280_humidity;BME280_pressure;Samples;Min_cycle;Max_cycle;Signal;HPM_P1;HPM_P2
2022/04/06 00:00:11;;;;;;;25.13;8.77;;;;;;;8.69;93.94;100293.84;5043115;28;20094;-75
2022/04/06 00:02:39;;;;;;;22.75;8.30;;;;;;;8.68;94.15;100294.78;5058084;28;20122;-76
2022/04/06 00:05:08;;;;;;;25.33;8.35;;;;;;;8.68;94.11;100290.47;5050914;28;20029;-75
2022/04/06 00:07:33;;;;;;;28.08;7.80;;;;;;;8.63;93.83;100290.09;5043586;28;20485;-75
2022/04/06 00:09:59;;;;;;;25.42;7.03;;;;;;;8.64;93.70;100286.53;5046635;28;20031;-75
2022/04/06 00:12:25;;;;;;;27.08;8.35;;;;;;;8.62;92.86;100285.88;5042233;28;20040;-76
2022/04/06 00:14:51;;;;;;;21.55;6.93;;;;;;;8.56;93.45;100283.94;5043541;28;20051;-76
2022/04/06 00:17:16;;;;;;;22.00;7.25;;;;;;;8.64;93.35;100278.00;5023414;28;20029;-76
2022/04/06 00:19:42;;;;;;;23.80;6.82;;;;;;;8.48;94.04;100278.75;5039778;28;20029;-76
2022/04/06 00:22:08;;;;;;;23.48;6.40;;;;;;;8.71;93.45;100282.38;5057041;28;20532;-75
2022/04/06 00:24:33;;;;;;;20.15;7.03;;;;;;;8.55;93.62;100280.53;5054667;28;20070;-75
2022/04/06 00:26:58;;;;;;;23.98;7.22;;;;;;;8.55;93.94;100279.72;5023383;28;20386;-76
2022/04/06 00:29:24;;;;;;;21.25;6.82;;;;;;;8.58;94.13;100272.47;5035581;28;20036;-76
2022/04/06 00:31:50;;;;;;;26.25;7.38;;;;;;;8.56;93.38;100276.97;5042389;28;20071;-76
2022/04/06 00:34:15;;;;;;;27.00;8.35;;;;;;;8.64;92.86;100280.56;5044771;28;20037;-76
2022/04/06 00:36:41;;;;;;;19.77;6.88;;;;;;;8.51;92.96;100275.81;5063577;28;20039;-76
2022/04/06 00:39:06;;;;;;;20.55;6.82;;;;;;;8.48;93.19;100278.75;5043545;28;20024;-75
2022/04/06 00:41:32;;;;;;;24.35;6.70;;;;;;;8.48;92.79;100276.97;5047823;28;20029;-75
2022/04/06 00:44:12;;;;;;;21.65;7.38;;;;;;;8.51;93.42;100273.25;5047485;28;20036;-76
2022/04/06 00:46:38;;;;;;;17.02;7.05;;;;;;;8.51;93.41;100279.25;5046243;28;20036;-75
2022/04/06 00:49:04;;;;;;;22.35;7.85;;;;;;;8.44;93.42;100278.25;5022135;28;20028;-75
2022/04/06 00:51:30;;;;;;;22.05;6.93;;;;;;;8.53;93.19;100274.72;5059869;28;20032;-76
2022/04/06 00:53:56;;;;;;;18.95;6.28;;;;;;;8.47;93.39;100275.31;5045574;28;20039;-75
2022/04/06 00:56:22;;;;;;;23.30;6.10;;;;;;;8.54;93.28;100266.00;5028084;28;20032;-75
2022/04/06 00:58:48;;;;;;;20.98;6.68;;;;;;;8.59;92.97;100265.53;5044153;28;20082;-76
2022/04/06 01:01:14;;;;;;;17.10;6.75;;;;;;;8.43;93.50;100268.06;5042915;28;20071;-76
2022/04/06 01:03:40;;;;;;;27.23;6.40;;;;;;;8.56;92.36;100258.91;5061204;28;20474;-75
2022/04/06 01:06:07;;;;;;;20.17;6.82;;;;;;;8.51;92.68;100262.91;5062392;28;20040;-75
2022/04/06 01:08:34;;;;;;;14.68;5.43;;;;;;;8.46;92.10;100255.63;5059353;28;20036;-75
2022/04/06 01:10:59;;;;;;;20.75;6.20;;;;;;;8.37;92.69;100253.94;5028010;28;20071;-75
2022/04/06 01:13:27;;;;;;;23.90;6.13;;;;;;;8.41;92.32;100250.09;5058390;28;20164;-75
2022/04/06 01:15:53;;;;;;;18.58;6.80;;;;;;;8.48;92.43;100253.69;5043246;28;20352;-76
2022/04/06 01:18:18;;;;;;;15.88;5.47;;;;;;;8.46;92.52;100254.84;5060989;28;20424;-74
2022/04/06 01:20:44;;;;;;;19.10;5.53;;;;;;;8.46;92.30;100247.09;5057810;28;20036;-75
2022/04/06 01:23:09;;;;;;;20.85;5.38;;;;;;;8.34;92.80;100249.91;5049363;28;20254;-75
2022/04/06 01:25:38;;;;;;;23.08;6.15;;;;;;;8.51;91.98;100250.81;5046766;28;20051;-75
2022/04/06 01:28:04;;;;;;;20.33;6.20;;;;;;;8.45;92.29;100255.78;5059078;28;20036;-76
2022/04/06 01:30:30;;;;;;;13.82;5.18;;;;;;;8.37;93.06;100254.75;5065799;28;20060;-75
2022/04/06 01:32:58;;;;;;;16.35;5.53;;;;;;;8.38;92.59;100247.78;5060920;28;20116;-76
2022/04/06 01:35:25;;;;;;;15.18;4.75;;;;;;;8.33;92.64;100239.72;5061571;28;20373;-75
2022/04/06 01:37:51;;;;;;;12.75;4.93;;;;;;;8.43;92.04;100249.97;5057640;28;20037;-75
2022/04/06 01:40:17;;;;;;;18.13;5.53;;;;;;;8.43;91.65;100244.81;5041599;28;20033;-75
2022/04/06 01:42:42;;;;;;;24.60;5.18;;;;;;;8.36;91.72;100237.66;5028164;28;20186;-75
2022/04/06 01:45:08;;;;;;;17.58;4.55;;;;;;;8.46;91.44;100234.16;5058962;28;20060;-75
2022/04/06 01:47:34;;;;;;;21.02;6.07;;;;;;;8.42;91.29;100232.81;5043446;28;20045;-75
2022/04/06 01:52:44;;;;;;;22.65;5.95;;;;;;;8.29;91.63;100239.22;5038999;28;20480;-75
2022/04/06 01:55:14;;;;;;;15.38;3.95;;;;;;;8.36;91.53;100224.72;5056959;28;20039;-75
2022/04/06 01:57:41;;;;;;;18.17;5.20;;;;;;;8.45;91.37;100227.38;5041958;28;20029;-75
2022/04/06 02:00:10;;;;;;;13.27;5.85;;;;;;;8.37;91.27;100233.28;5041825;28;20032;-75
2022/04/06 02:02:40;;;;;;;22.15;5.53;;;;;;;8.27;91.83;100235.16;5044342;28;20044;-75
2022/04/06 02:05:06;;;;;;;23.65;4.75;;;;;;;8.41;90.51;100226.84;5043909;28;20039;-75
2022/04/06 02:07:32;;;;;;;18.42;4.65;;;;;;;8.39;90.76;100219.22;5043949;28;20489;-74
2022/04/06 02:10:02;;;;;;;16.02;4.30;;;;;;;8.39;90.43;100224.41;5040407;28;20059;-75
2022/04/06 02:12:29;;;;;;;13.43;4.43;;;;;;;8.37;90.60;100221.16;5057511;28;20440;-76
2022/04/06 02:14:55;;;;;;;13.43;4.40;;;;;;;8.25;91.10;100221.59;5059190;28;20036;-74
2022/04/06 02:17:21;;;;;;;21.13;4.40;;;;;;;8.37;90.62;100218.56;5059632;28;20044;-74
2022/04/06 02:19:47;;;;;;;15.65;4.13;;;;;;;8.39;90.13;100210.69;5044079;28;20033;-74
2022/04/06 02:22:12;;;;;;;19.83;4.85;;;;;;;8.30;90.61;100227.09;5040710;28;20485;-75
2022/04/06 02:24:38;;;;;;;16.23;5.07;;;;;;;8.26;90.82;100218.06;5056861;28;20483;-74
2022/04/06 02:27:07;;;;;;;18.50;5.28;;;;;;;8.34;90.30;100210.31;5033582;28;20040;-75
2022/04/06 02:29:34;;;;;;;21.40;4.47;;;;;;;8.37;90.57;100215.19;5042123;28;20508;-76
2022/04/06 02:32:00;;;;;;;15.88;4.50;;;;;;;8.34;90.35;100210.31;5056982;28;20086;-75
2022/04/06 02:34:25;;;;;;;17.73;4.20;;;;;;;8.36;90.06;100216.16;5025209;28;20041;-74
2022/04/06 02:36:50;;;;;;;18.77;5.22;;;;;;;8.33;89.98;100214.69;5040027;28;20028;-75
2022/04/06 02:39:16;;;;;;;16.27;4.90;;;;;;;8.33;89.62;100209.53;5060445;28;20451;-75
2022/04/06 02:41:41;;;;;;;11.40;4.18;;;;;;;8.28;90.20;100208.38;5060199;28;20554;-75
2022/04/06 02:44:07;;;;;;;21.80;5.82;;;;;;;8.22;90.14;100204.63;5026190;28;20110;-75
2022/04/06 02:46:33;;;;;;;18.75;4.95;;;;;;;8.34;89.91;100200.81;5058071;28;20056;-75
2022/04/06 02:48:58;;;;;;;22.38;5.32;;;;;;;8.30;90.47;100193.53;5035039;28;20036;-75
2022/04/06 02:51:24;;;;;;;21.13;5.93;;;;;;;8.37;89.79;100190.16;5039280;28;20032;-75
2022/04/06 02:53:49;;;;;;;24.08;5.53;;;;;;;8.27;90.09;100193.81;5059444;28;20443;-75
2022/04/06 02:56:15;;;;;;;12.90;5.10;;;;;;;8.27;90.05;100189.50;5040985;28;20039;-75
2022/04/06 02:58:41;;;;;;;17.05;5.35;;;;;;;8.23;90.01;100190.78;5041115;28;20051;-74
2022/04/06 03:01:06;;;;;;;19.08;5.68;;;;;;;8.25;90.48;100185.44;5044715;28;20112;-75
2022/04/06 03:03:32;;;;;;;26.27;6.05;;;;;;;8.16;90.23;100188.00;5060074;28;20040;-75
2022/04/06 03:05:57;;;;;;;18.08;5.40;;;;;;;8.29;89.78;100184.97;5029172;28;20029;-75
2022/04/06 03:08:23;;;;;;;21.15;5.90;;;;;;;8.32;89.58;100182.06;5060523;28;20078;-75
2022/04/06 03:10:48;;;;;;;21.55;6.03;;;;;;;8.20;89.79;100185.91;5035515;28;20472;-74
2022/04/06 03:13:14;;;;;;;18.58;5.82;;;;;;;8.16;89.56;100179.44;5062801;28;20512;-75
2022/04/06 03:15:39;;;;;;;11.40;5.55;;;;;;;8.31;89.88;100188.22;5039303;28;20456;-75
2022/04/06 03:18:05;;;;;;;17.58;6.10;;;;;;;8.27;89.66;100181.75;5043333;28;20630;-75
2022/04/06 03:20:31;;;;;;;16.00;5.55;;;;;;;8.17;89.38;100188.78;5028084;28;20025;-74
2022/04/06 03:22:56;;;;;;;21.92;6.70;;;;;;;8.23;89.37;100183.03;5054531;28;20120;-75
2022/04/06 03:25:22;;;;;;;19.00;6.07;;;;;;;8.13;89.73;100182.31;5061178;28;20032;-75
2022/04/06 03:27:47;;;;;;;15.30;7.50;;;;;;;8.05;90.01;100179.72;5040998;28;20388;-75
2022/04/06 03:30:13;;;;;;;19.38;5.43;;;;;;;8.19;88.99;100186.84;5043654;28;20082;-73
2022/04/06 03:32:40;;;;;;;17.30;6.88;;;;;;;8.13;89.59;100175.38;5061266;28;20049;-74
2022/04/06 03:35:06;;;;;;;16.77;5.65;;;;;;;8.03;89.50;100171.31;5060417;28;20057;-76
2022/04/06 03:37:32;;;;;;;17.65;5.88;;;;;;;8.11;88.65;100166.16;5062109;28;20058;-75
2022/04/06 03:39:57;;;;;;;17.05;5.13;;;;;;;8.05;88.31;100162.44;5049560;28;20388;-74
2022/04/06 03:42:23;;;;;;;20.48;5.70;;;;;;;8.09;87.73;100166.31;5041731;28;20074;-75
2022/04/06 03:44:49;;;;;;;14.57;5.35;;;;;;;7.97;88.21;100158.03;5042931;28;20049;-75
2022/04/06 03:47:15;;;;;;;11.18;4.68;;;;;;;8.11;88.05;100161.00;5043804;28;20043;-75
2022/04/06 03:49:40;;;;;;;17.63;4.90;;;;;;;7.94;88.12;100154.97;5042691;28;20044;-75
2022/04/06 03:52:06;;;;;;;13.00;5.05;;;;;;;7.92;88.17;100149.16;5045474;28;20066;-74
2022/04/06 03:54:31;;;;;;;18.23;6.13;;;;;;;7.85;88.69;100153.31;5063062;28;20071;-75
2022/04/06 03:56:57;;;;;;;17.20;4.63;;;;;;;7.82;88.79;100149.25;5044123;28;20039;-75
2022/04/06 03:59:23;;;;;;;11.77;4.30;;;;;;;7.78;87.99;100150.53;5028535;28;20029;-75
2022/04/06 04:01:49;;;;;;;11.18;4.13;;;;;;;7.84;87.46;100147.34;5058305;28;20040;-75
2022/04/06 04:04:14;;;;;;;13.73;3.67;;;;;;;7.88;87.55;100147.84;5056443;28;20040;-75
2022/04/06 04:06:40;;;;;;;18.52;4.97;;;;;;;7.79;87.65;100147.78;5042608;28;20039;-74
2022/04/06 04:09:06;;;;;;;14.50;3.97;;;;;;;7.78;87.76;100148.75;5061877;28;20028;-75
2022/04/06 04:11:31;;;;;;;9.40;3.15;;;;;;;7.80;87.09;100140.88;5059601;28;20045;-74
2022/04/06 04:13:56;;;;;;;10.90;3.60;;;;;;;7.70;86.93;100137.56;5032264;28;20052;-75
2022/04/06 04:16:22;;;;;;;13.82;3.80;;;;;;;7.79;86.48;100145.19;5047169;28;20086;-75
2022/04/06 04:18:47;;;;;;;20.05;3.45;;;;;;;7.96;85.63;100138.34;5057619;28;20029;-74
2022/04/06 04:23:57;;;;;;;16.27;3.40;;;;;;;7.91;84.97;100140.59;5043730;28;20143;-75
2022/04/06 04:26:22;;;;;;;16.33;3.33;;;;;;;7.85;85.51;100135.22;5064167;28;20032;-75
2022/04/06 04:28:48;;;;;;;8.02;3.13;;;;;;;7.91;84.92;100129.44;5043911;28;20031;-74
2022/04/06 04:31:13;;;;;;;14.98;3.35;;;;;;;7.90;84.74;100135.59;5046706;28;20025;-75
2022/04/06 04:33:39;;;;;;;13.35;3.13;;;;;;;8.09;84.31;100144.84;5028190;28;20424;-75
2022/04/06 04:36:04;;;;;;;10.60;3.08;;;;;;;8.05;83.44;100146.16;5030254;28;20040;-74
2022/04/06 04:38:30;;;;;;;10.32;2.88;;;;;;;7.94;83.81;100129.94;5061189;28;20043;-75
2022/04/06 04:40:55;;;;;;;10.88;2.75;;;;;;;7.95;83.60;100141.09;5046722;28;20037;-75
2022/04/06 04:43:22;;;;;;;11.13;3.20;;;;;;;7.96;83.23;100140.91;5046631;28;20039;-75
2022/04/06 04:45:48;;;;;;;12.88;2.88;;;;;;;8.04;82.81;100134.97;5042326;28;20039;-74
2022/04/06 04:48:14;;;;;;;12.95;3.08;;;;;;;7.95;83.30;100129.00;5059455;28;20025;-74
2022/04/06 04:50:39;;;;;;;14.95;3.65;;;;;;;8.13;82.65;100146.16;5059405;28;20035;-75
2022/04/06 04:53:05;;;;;;;12.93;3.38;;;;;;;8.10;82.82;100134.38;5036682;28;20036;-75
2022/04/06 04:55:32;;;;;;;10.35;3.45;;;;;;;8.04;83.23;100132.41;5026773;28;20510;-74
2022/04/06 04:57:58;;;;;;;16.98;4.40;;;;;;;8.01;83.76;100134.50;5042577;28;20071;-75
2022/04/06 05:00:23;;;;;;;15.68;3.72;;;;;;;8.07;84.53;100136.47;5057647;28;20067;-75
2022/04/06 05:02:49;;;;;;;20.70;5.47;;;;;;;8.08;84.52;100133.72;5041275;28;20056;-74
2022/04/06 05:05:14;;;;;;;16.85;4.25;;;;;;;7.98;84.92;100120.91;5042287;28;20060;-75
2022/04/06 05:07:40;;;;;;;13.05;3.78;;;;;;;7.94;86.05;100121.41;5040319;28;20484;-75
2022/04/06 05:10:09;;;;;;;15.15;4.43;;;;;;;8.02;86.00;100125.78;5028813;28;20036;-75
2022/04/06 05:12:34;;;;;;;13.85;4.60;;;;;;;8.02;86.59;100125.78;5043130;28;20043;-75
2022/04/06 05:15:00;;;;;;;21.98;5.15;;;;;;;8.07;85.86;100131.31;5060042;28;20420;-75
2022/04/06 05:17:27;;;;;;;22.98;4.50;;;;;;;8.09;86.21;100126.78;5057290;28;21335;-75
2022/04/06 05:19:53;;;;;;;11.80;5.20;;;;;;;8.03;86.83;100130.81;5039537;28;20044;-75
2022/04/06 05:22:19;;;;;;;12.43;5.05;;;;;;;8.06;86.96;100121.91;5043293;28;20064;-75
2022/04/06 05:24:45;;;;;;;19.10;4.88;;;;;;;7.93;87.74;100122.34;5060370;28;20532;-74
2022/04/06 05:27:10;;;;;;;20.08;5.00;;;;;;;7.94;88.47;100129.94;5057740;28;20032;-74
2022/04/06 05:29:36;;;;;;;13.45;5.13;;;;;;;7.90;88.24;100133.00;5041516;28;20146;-75
2022/04/06 05:32:02;;;;;;;14.75;5.20;;;;;;;8.08;88.29;100127.72;5027227;28;20589;-75
2022/04/06 05:34:28;;;;;;;15.70;4.90;;;;;;;7.96;88.21;100129.78;5041017;28;20044;-76
2022/04/06 05:36:54;;;;;;;18.17;5.80;;;;;;;8.03;88.14;100125.63;5028379;28;20091;-76
2022/04/06 05:39:19;;;;;;;20.27;5.40;;;;;;;8.05;87.65;100128.06;5043254;28;20029;-75
2022/04/06 05:41:45;;;;;;;17.33;5.35;;;;;;;7.93;88.14;100125.75;5061311;28;20036;-75
2022/04/06 05:44:10;;;;;;;12.05;4.32;;;;;;;8.08;87.79;100132.91;5060092;28;20028;-75
2022/04/06 05:46:35;;;;;;;13.27;4.60;;;;;;;8.07;86.58;100132.09;5042075;28;20472;-74
2022/04/06 05:49:01;;;;;;;23.05;5.03;;;;;;;8.05;87.29;100125.47;5037563;28;20039;-75
2022/04/06 05:51:27;;;;;;;14.88;4.45;;;;;;;8.00;87.07;100125.94;5058843;28;20597;-74
2022/04/06 05:53:52;;;;;;;14.93;3.70;;;;;;;8.08;86.88;100128.56;5044506;28;20032;-75
2022/04/06 05:56:18;;;;;;;16.98;4.13;;;;;;;8.11;86.97;100122.28;5044384;28;20588;-75
2022/04/06 05:58:44;;;;;;;21.13;4.88;;;;;;;8.11;86.80;100127.44;5041936;28;20107;-75
2022/04/06 06:01:09;;;;;;;11.63;3.88;;;;;;;8.01;86.72;100130.16;5061204;28;20481;-75
2022/04/06 06:03:35;;;;;;;20.83;3.78;;;;;;;8.08;87.43;100122.56;5054359;28;20172;-75
2022/04/06 06:06:01;;;;;;;18.20;4.22;;;;;;;8.08;86.29;100128.56;5023360;28;20032;-75
2022/04/06 06:08:26;;;;;;;14.82;4.00;;;;;;;8.02;86.28;100121.41;5029483;28;20127;-75
2022/04/06 06:10:52;;;;;;;10.27;3.13;;;;;;;8.00;86.70;100128.50;5055405;28;20036;-74
2022/04/06 06:13:17;;;;;;;13.63;3.13;;;;;;;8.11;86.14;100125.66;5047321;28;20028;-76
2022/04/06 06:15:43;;;;;;;10.10;3.50;;;;;;;8.01;86.54;100134.50;5058821;28;20470;-76
2022/04/06 06:18:08;;;;;;;14.75;3.60;;;;;;;8.10;86.59;100130.97;5054215;28;20321;-75
2022/04/06 06:20:35;;;;;;;14.15;3.65;;;;;;;7.98;86.81;100133.03;5056072;28;20074;-74
2022/04/06 06:23:00;;;;;;;13.00;3.65;;;;;;;7.93;87.64;100128.34;5041214;28;20036;-75
2022/04/06 06:25:27;;;;;;;11.38;3.03;;;;;;;8.12;87.06;100131.66;5058038;28;20036;-74
2022/04/06 06:27:53;;;;;;;16.50;3.42;;;;;;;8.02;87.40;100128.38;5023095;28;20039;-74
2022/04/06 06:30:18;;;;;;;8.93;3.22;;;;;;;7.95;88.51;100130.78;5044607;28;20037;-75
2022/04/06 06:32:44;;;;;;;10.15;3.92;;;;;;;7.94;88.61;100124.78;5056599;28;20630;-76
2022/04/06 06:35:10;;;;;;;14.07;3.70;;;;;;;7.94;89.49;100132.53;5044586;28;20090;-77
2022/04/06 06:37:36;;;;;;;16.20;3.47;;;;;;;7.89;89.79;100129.63;5028596;28;20069;-76
2022/04/06 06:40:03;;;;;;;11.20;3.80;;;;;;;7.90;90.01;100133.81;5040955;28;20042;-76
2022/04/06 06:42:29;;;;;;;15.68;4.90;;;;;;;7.87;90.01;100125.56;5038655;28;20063;-76
2022/04/06 06:44:54;;;;;;;10.70;3.30;;;;;;;7.86;90.25;100131.69;5036458;28;20036;-77
2022/04/06 06:47:20;;;;;;;10.48;3.63;;;;;;;7.87;90.22;100123.78;5025500;28;20040;-76
2022/04/06 06:49:46;;;;;;;11.82;4.43;;;;;;;7.92;90.02;100126.72;5044184;28;20040;-77
2022/04/06 06:52:15;;;;;;;13.48;4.32;;;;;;;7.82;90.82;100128.63;5026191;28;20037;-77
2022/04/06 06:54:41;;;;;;;11.18;4.53;;;;;;;7.82;90.52;100128.63;5042766;28;20047;-76
2022/04/06 06:57:06;;;;;;;12.02;4.13;;;;;;;7.82;91.36;100128.63;5027496;28;20032;-76
2022/04/06 06:59:32;;;;;;;13.48;3.70;;;;;;;7.87;90.71;100126.34;5043471;28;20036;-76
2022/04/06 07:01:57;;;;;;;12.07;3.70;;;;;;;7.90;90.59;100113.16;5040173;28;20037;-75
2022/04/06 07:04:23;;;;;;;13.38;4.07;;;;;;;7.91;90.75;100116.53;5060039;28;20071;-76
2022/04/06 07:06:49;;;;;;;11.95;4.03;;;;;;;8.08;89.85;100123.41;5057306;28;20440;-76
2022/04/06 07:09:16;;;;;;;14.82;3.28;;;;;;;8.04;89.91;100098.03;5025296;28;21464;-76
2022/04/06 07:11:41;;;;;;;15.15;5.03;;;;;;;8.02;88.86;100102.53;5044799;28;20021;-76
2022/04/06 07:14:07;;;;;;;17.85;4.93;;;;;;;8.09;88.14;100094.00;5037497;28;20124;-76
2022/04/06 07:16:32;;;;;;;16.23;3.83;;;;;;;8.18;87.05;100102.59;5058708;28;20851;-76
2022/04/06 07:18:58;;;;;;;13.13;3.22;;;;;;;8.13;87.85;100097.91;5041966;28;20408;-76
2022/04/06 07:21:23;;;;;;;15.73;4.38;;;;;;;8.06;87.93;100098.69;5043118;28;20493;-77
2022/04/06 07:23:49;;;;;;;10.00;4.03;;;;;;;7.98;88.68;100100.25;5045256;28;20037;-76
2022/04/06 07:26:16;;;;;;;13.52;4.35;;;;;;;8.05;89.23;100097.09;5032728;28;20041;-77
2022/04/06 07:28:45;;;;;;;25.13;4.25;;;;;;;8.08;88.71;100107.06;5043484;28;20471;-76
2022/04/06 07:31:12;;;;;;;13.02;4.07;;;;;;;7.97;89.75;100090.91;5044681;28;20371;-77
2022/04/06 07:33:38;;;;;;;16.48;4.57;;;;;;;7.96;90.03;100091.88;5039997;28;20051;-76
2022/04/06 07:36:05;;;;;;;11.15;4.03;;;;;;;8.03;89.91;100083.53;5023354;28;20477;-75
2022/04/06 07:38:30;;;;;;;16.75;4.72;;;;;;;8.08;90.03;100092.41;5059880;28;20066;-76
2022/04/06 07:40:56;;;;;;;15.38;4.65;;;;;;;8.21;89.01;100088.56;5042926;28;20741;-76
2022/04/06 07:43:22;;;;;;;12.10;3.97;;;;;;;8.19;88.56;100086.13;5028743;28;20035;-76
2022/04/06 07:45:47;;;;;;;9.48;3.72;;;;;;;8.20;88.11;100085.19;5044541;28;20413;-76
2022/04/06 07:48:12;;;;;;;13.73;4.22;;;;;;;8.18;88.51;100084.53;5028510;28;20040;-76
2022/04/06 07:50:38;;;;;;;13.07;4.45;;;;;;;8.21;87.66;100081.63;5027996;28;20025;-76
2022/04/06 07:53:04;;;;;;;10.70;3.97;;;;;;;8.20;86.79;100082.59;5039647;28;20091;-76
2022/04/06 07:55:29;;;;;;;14.73;4.05;;;;;;;8.30;86.99;100082.44;5029067;28;20089;-77
2022/04/06 07:57:55;;;;;;;8.23;4.10;;;;;;;8.38;87.50;100085.88;5019731;28;20069;-76
2022/04/06 08:00:21;;;;;;;11.50;3.85;;;;;;;8.44;85.90;100083.63;5042305;28;20120;-76
2022/04/06 08:02:49;;;;;;;15.15;5.72;;;;;;;8.46;85.00;100084.31;5026863;28;20024;-76
2022/04/06 08:05:15;;;;;;;12.75;3.65;;;;;;;8.38;84.98;100077.28;5025131;28;20597;-76
2022/04/06 08:07:43;;;;;;;7.50;3.25;;;;;;;8.46;84.85;100084.31;5061143;28;20033;-76
2022/04/06 08:10:16;;;;;;;9.43;3.30;;;;;;;8.48;84.70;100087.53;5060573;28;20033;-76
2022/04/06 08:12:43;;;;;;;8.35;3.40;;;;;;;8.52;83.85;100079.28;5055211;28;20086;-77
2022/04/06 08:15:09;;;;;;;9.25;3.28;;;;;;;8.52;82.89;100075.91;5030365;28;20036;-76
2022/04/06 08:17:40;;;;;;;12.18;3.10;;;;;;;8.60;83.01;100069.94;5049078;28;20084;-76
2022/04/06 08:20:14;;;;;;;17.17;3.33;;;;;;;8.63;82.51;100074.78;5029397;28;20067;-76
2022/04/06 08:22:41;;;;;;;8.23;2.53;;;;;;;8.62;81.78;100061.03;5062247;28;20032;-76
2022/04/06 08:25:07;;;;;;;9.88;2.40;;;;;;;8.73;81.26;100057.34;5062607;28;20036;-77
2022/04/06 08:27:39;;;;;;;7.78;2.20;;;;;;;8.70;80.75;100061.06;5048091;28;20056;-76
2022/04/06 08:30:05;;;;;;;10.57;2.42;;;;;;;8.94;80.25;100047.28;5063903;28;20036;-76
2022/04/06 08:32:32;;;;;;;7.70;2.30;;;;;;;8.99;79.31;100049.41;5058424;28;20047;-77
2022/04/06 08:34:57;;;;;;;14.38;2.40;;;;;;;8.99;79.03;100044.22;5035114;28;20452;-76
2022/04/06 08:37:22;;;;;;;5.35;1.73;;;;;;;9.13;78.09;100030.59;5038750;28;20028;-77
2022/04/06 08:39:48;;;;;;;8.75;2.08;;;;;;;9.16;77.26;100043.22;5027876;28;20402;-77
2022/04/06 08:42:14;;;;;;;9.02;3.45;;;;;;;9.28;76.33;100020.38;5060699;28;20060;-76
2022/04/06 08:44:40;;;;;;;8.50;2.35;;;;;;;9.24;76.29;100032.03;5046983;28;20055;-77
2022/04/06 08:47:06;;;;;;;6.57;1.90;;;;;;;9.27;74.97;100038.69;5040550;28;20032;-76
2022/04/06 08:49:34;;;;;;;11.55;1.80;;;;;;;9.20;75.67;100040.31;5059346;28;20494;-77
2022/04/06 08:52:03;;;;;;;7.60;1.90;;;;;;;9.28;76.45;100037.69;5028117;28;20052;-76
2022/04/06 08:54:29;;;;;;;20.73;2.67;;;;;;;9.36;75.54;100045.44;5046502;28;20491;-77
2022/04/06 08:56:54;;;;;;;8.27;2.40;;;;;;;9.44;75.13;100040.25;5043942;28;20416;-76
2022/04/06 08:59:20;;;;;;;6.13;1.67;;;;;;;9.42;74.02;100043.97;5048032;28;20098;-76
2022/04/06 09:01:46;;;;;;;4.25;1.83;;;;;;;9.41;73.82;100035.41;5046003;28;20035;-77
2022/04/06 09:04:12;;;;;;;6.60;1.70;;;;;;;9.47;74.27;100041.69;5044506;28;20040;-77
2022/04/06 09:06:43;;;;;;;13.15;2.15;;;;;;;9.48;74.41;100044.13;5032566;28;20046;-77
2022/04/06 09:09:09;;;;;;;8.32;1.83;;;;;;;9.48;74.64;100032.97;5058786;28;20032;-77
2022/04/06 09:11:42;;;;;;;6.18;1.70;;;;;;;9.56;73.59;100038.09;5059069;28;20028;-77
2022/04/06 09:14:07;;;;;;;;;;;;;;;9.49;72.76;100040.56;5028206;28;20028;-77
2022/04/06 09:16:33;;;;;;;8.20;2.13;;;;;;;9.47;72.84;100045.06;5027964;28;20284;-76
2022/04/06 09:19:07;;;;;;;7.53;1.50;;;;;;;9.52;71.84;100042.78;5042911;28;20267;-76
2022/04/06 09:21:39;;;;;;;5.28;1.35;;;;;;;9.62;72.09;100058.13;5060563;28;20412;-77
2022/04/06 09:24:05;;;;;;;11.20;1.85;;;;;;;9.57;72.71;100050.06;5044003;28;20341;-76
2022/04/06 09:26:31;;;;;;;6.68;1.60;;;;;;;9.55;72.84;100045.06;5047151;28;20526;-77
2022/04/06 09:28:57;;;;;;;9.02;1.75;;;;;;;9.58;72.23;100043.09;5059761;28;20486;-77
2022/04/06 09:31:23;;;;;;;6.40;1.58;;;;;;;9.54;71.90;100050.41;5043951;28;20041;-77
2022/04/06 09:33:57;;;;;;;5.00;1.55;;;;;;;9.44;72.15;100042.84;5047588;28;20039;-77
2022/04/06 09:36:26;;;;;;;15.15;1.95;;;;;;;9.40;72.17;100044.16;5040808;28;20402;-77
2022/04/06 09:38:52;;;;;;;8.25;1.63;;;;;;;9.32;72.72;100047.56;5042138;28;20052;-77
2022/04/06 09:41:19;;;;;;;7.47;1.60;;;;;;;9.36;73.70;100037.66;5037863;28;20039;-77
2022/04/06 09:43:46;;;;;;;11.20;1.70;;;;;;;9.43;73.13;100036.03;5030175;28;20032;-77
2022/04/06 09:49:13;;;;;;;7.13;1.80;;;;;;;9.34;73.52;100048.22;5058535;28;20032;-77
2022/04/06 09:51:42;;;;;;;6.28;1.80;;;;;;;9.47;73.34;100045.06;5045066;28;20029;-77
2022/04/06 09:54:09;;;;;;;9.48;2.50;;;;;;;9.37;73.46;100047.06;5040477;28;20037;-77
2022/04/06 09:56:36;;;;;;;10.80;2.25;;;;;;;9.49;73.70;100050.09;5058629;28;20024;-77
2022/04/06 09:59:03;;;;;;;9.32;1.92;;;;;;;9.47;73.70;100037.31;5038678;28;20033;-76
2022/04/06 10:01:33;;;;;;;6.57;1.42;;;;;;;9.39;74.37;100039.94;5027999;28;20097;-77
2022/04/06 10:04:11;;;;;;;9.70;2.00;;;;;;;9.34;74.51;100037.84;5043079;28;20029;-76
2022/04/06 10:06:38;;;;;;;8.95;2.08;;;;;;;9.35;74.38;100043.84;5055795;28;20036;-76
2022/04/06 10:09:06;;;;;;;12.75;1.92;;;;;;;9.39;74.33;100031.38;5045503;28;20043;-77
2022/04/06 10:11:34;;;;;;;6.00;1.80;;;;;;;9.44;75.09;100035.06;5040599;28;20029;-77
2022/04/06 10:14:00;;;;;;;6.53;1.95;;;;;;;9.67;73.96;100029.16;5058435;28;20874;-76
2022/04/06 10:16:27;;;;;;;14.38;1.88;;;;;;;9.59;73.23;100018.81;5041893;28;20044;-77
2022/04/06 10:18:54;;;;;;;6.20;1.55;;;;;;;9.63;74.19;100025.31;5043929;28;20104;-77
2022/04/06 10:21:41;;;;;;;6.45;2.05;;;;;;;9.50;74.12;100018.06;5057199;28;20041;-76
2022/04/06 10:24:39;;;;;;;8.15;1.27;;;;;;;9.56;74.02;100017.38;5029303;28;20032;-76
2022/04/06 10:27:25;;;;;;;7.70;1.67;;;;;;;9.65;74.42;100018.16;5061714;28;20096;-78
2022/04/06 10:30:14;;;;;;;9.20;1.73;;;;;;;9.72;74.57;100016.53;5031271;28;20059;-77
2022/04/06 10:32:45;;;;;;;5.05;1.55;;;;;;;9.77;74.20;100005.66;5039592;28;20040;-77
2022/04/06 10:35:36;;;;;;;8.10;2.00;;;;;;;9.71;74.39;100015.69;5026970;28;20037;-76
2022/04/06 10:38:05;;;;;;;10.25;2.00;;;;;;;9.68;74.15;100005.69;5055722;28;20028;-77
2022/04/06 10:40:42;;;;;;;6.45;1.75;;;;;;;9.82;74.89;100005.97;5046278;28;20044;-77
2022/04/06 10:43:34;;;;;;;4.78;1.55;;;;;;;9.93;74.86;100000.38;5060078;28;20052;-77
2022/04/06 10:46:00;;;;;;;7.38;2.00;;;;;;;10.09;74.48;99992.50;5047509;28;20045;-77
2022/04/06 10:48:26;;;;;;;4.70;1.88;;;;;;;10.09;73.63;100002.06;5038411;28;20070;-77
2022/04/06 10:50:51;;;;;;;10.82;1.85;;;;;;;10.14;73.69;99999.78;5055485;28;20056;-76
2022/04/06 10:53:23;;;;;;;12.10;2.80;;;;;;;10.22;73.67;99991.13;5024859;28;20024;-76
2022/04/06 10:55:59;;;;;;;8.85;2.03;;;;;;;10.33;73.89;99988.16;5054460;28;20033;-77
2022/04/06 10:58:26;;;;;;;4.35;1.60;;;;;;;10.38;73.30;99982.44;5058267;28;22252;-76
2022/04/06 11:01:18;;;;;;;9.27;1.50;;;;;;;10.44;73.28;99997.31;5042472;28;20028;-77
2022/04/06 11:03:56;;;;;;;4.88;1.77;;;;;;;10.29;73.16;99982.50;5041084;28;20443;-77
2022/04/06 11:06:40;;;;;;;5.80;1.40;;;;;;;10.21;72.79;99984.31;5061713;28;20036;-77
2022/04/06 11:12:11;;;;;;;3.53;1.50;;;;;;;10.06;74.68;99987.69;5046518;28;20572;-76
2022/04/06 11:14:37;;;;;;;5.55;1.50;;;;;;;9.93;75.25;99983.06;5043843;28;20413;-77
2022/04/06 11:17:44;;;;;;;4.90;1.63;;;;;;;10.08;75.05;99982.34;5028810;28;20040;-77
2022/04/06 11:20:28;;;;;;;6.22;2.03;;;;;;;10.16;74.83;99994.41;5028264;28;20511;-77
2022/04/06 11:22:56;;;;;;;7.15;1.85;;;;;;;10.25;74.29;99973.47;5059062;28;20530;-77
2022/04/06 11:25:27;;;;;;;8.35;1.80;;;;;;;10.10;74.69;99985.56;5043278;28;20029;-76
2022/04/06 11:27:55;;;;;;;5.43;1.67;;;;;;;10.10;74.35;99988.16;5035197;28;20072;-76
2022/04/06 11:30:26;;;;;;;7.25;1.65;;;;;;;10.05;74.21;99977.47;5025987;28;20564;-77
2022/04/06 11:32:57;;;;;;;3.55;1.40;;;;;;;10.10;74.20;99963.03;5025353;28;20135;-77
2022/04/06 11:35:28;;;;;;;6.65;1.92;;;;;;;10.27;73.22;99965.50;5057871;28;20043;-77
2022/04/06 11:37:54;;;;;;;4.40;1.55;;;;;;;10.24;73.30;99953.69;5055134;28;20032;-78